Hughesville, Missouri
Current Conditions -  °F | °C
As of 1:53 PM on Friday 31 Oct 2014 (Local Time) from KDMO Reporting Station
Light Rain Light Rain  
Wind Chill: 38°   Ceiling: Unl
Heat Index: 46°   Visibility: 10mi
Dew Point: 19°   Wind: 20mph
Humidity: 34%   Direction: 350°N
Pressure: 30.42"   Gusts: 24mph
Location:  38.84°N, 93.3°W
Report Text: KDMO 311853Z AUTO 35017G21KT 10SM -RA CLR 08/M07 A3042 RMK AO2 SLP305 P0000 T00781072
Loading
Personal Weather Stations






























Interactive Weather Map New forecast layout! Learn more

10-Day Weather Forecast

Advertisements
Track Severe Weather on mobile